sensor_id;sensor_type;location;lat;lon;timestamp;P1;durP1;ratioP1;P2;durP2;ratioP2
74102;SDS011;62853;46.166;3.640;2023-02-20T00:01:44;5.57;;;3.63;;
74102;SDS011;62853;46.166;3.640;2023-02-20T00:04:48;3.85;;;3.25;;
74102;SDS011;62853;46.166;3.640;2023-02-20T00:14:34;7.65;;;5.10;;
74102;SDS011;62853;46.166;3.640;2023-02-20T00:17:32;6.70;;;4.60;;
74102;SDS011;62853;46.166;3.640;2023-02-20T00:27:28;6.15;;;4.18;;
74102;SDS011;62853;46.166;3.640;2023-02-20T00:33:37;6.55;;;4.47;;
74102;SDS011;62853;46.166;3.640;2023-02-20T00:46:49;7.40;;;5.07;;
74102;SDS011;62853;46.166;3.640;2023-02-20T00:52:57;5.70;;;4.22;;
74102;SDS011;62853;46.166;3.640;2023-02-20T00:59:31;9.82;;;5.78;;
74102;SDS011;62853;46.166;3.640;2023-02-20T01:06:17;9.32;;;6.55;;
74102;SDS011;62853;46.166;3.640;2023-02-20T01:12:27;9.88;;;6.50;;
74102;SDS011;62853;46.166;3.640;2023-02-20T01:15:56;10.88;;;7.32;;
74102;SDS011;62853;46.166;3.640;2023-02-20T01:19:02;9.30;;;6.45;;
74102;SDS011;62853;46.166;3.640;2023-02-20T01:25:36;9.25;;;6.65;;
74102;SDS011;62853;46.166;3.640;2023-02-20T01:28:44;11.05;;;6.90;;
74102;SDS011;62853;46.166;3.640;2023-02-20T01:34:47;9.80;;;6.45;;
74102;SDS011;62853;46.166;3.640;2023-02-20T01:41:03;9.70;;;6.40;;
74102;SDS011;62853;46.166;3.640;2023-02-20T01:50:38;10.05;;;6.28;;
74102;SDS011;62853;46.166;3.640;2023-02-20T01:56:50;8.65;;;6.03;;
74102;SDS011;62853;46.166;3.640;2023-02-20T02:00:19;11.15;;;7.28;;
74102;SDS011;62853;46.166;3.640;2023-02-20T02:03:38;9.38;;;6.00;;
74102;SDS011;62853;46.166;3.640;2023-02-20T02:06:40;8.95;;;5.47;;
74102;SDS011;62853;46.166;3.640;2023-02-20T02:13:31;10.48;;;7.18;;
74102;SDS011;62853;46.166;3.640;2023-02-20T02:22:45;12.07;;;6.83;;
74102;SDS011;62853;46.166;3.640;2023-02-20T02:25:54;11.80;;;7.60;;
74102;SDS011;62853;46.166;3.640;2023-02-20T02:40:42;20.38;;;11.32;;
74102;SDS011;62853;46.166;3.640;2023-02-20T02:44:06;14.48;;;9.38;;
74102;SDS011;62853;46.166;3.640;2023-02-20T02:47:11;15.55;;;9.55;;
74102;SDS011;62853;46.166;3.640;2023-02-20T02:53:24;18.08;;;11.63;;
74102;SDS011;62853;46.166;3.640;2023-02-20T02:55:55;15.43;;;10.57;;
74102;SDS011;62853;46.166;3.640;2023-02-20T02:58:34;23.00;;;12.43;;
74102;SDS011;62853;46.166;3.640;2023-02-20T03:01:33;19.63;;;12.35;;
74102;SDS011;62853;46.166;3.640;2023-02-20T03:04:18;18.50;;;13.02;;
74102;SDS011;62853;46.166;3.640;2023-02-20T03:07:17;16.80;;;12.43;;
74102;SDS011;62853;46.166;3.640;2023-02-20T03:10:28;19.33;;;13.70;;
74102;SDS011;62853;46.166;3.640;2023-02-20T03:13:02;19.38;;;13.80;;
74102;SDS011;62853;46.166;3.640;2023-02-20T03:15:45;28.27;;;16.02;;
74102;SDS011;62853;46.166;3.640;2023-02-20T03:18:41;22.00;;;14.23;;
74102;SDS011;62853;46.166;3.640;2023-02-20T03:21:21;29.15;;;15.73;;
74102;SDS011;62853;46.166;3.640;2023-02-20T03:24:28;20.60;;;14.20;;
74102;SDS011;62853;46.166;3.640;2023-02-20T03:27:27;18.50;;;13.38;;
74102;SDS011;62853;46.166;3.640;2023-02-20T03:32:32;20.65;;;12.98;;
74102;SDS011;62853;46.166;3.640;2023-02-20T03:35:17;25.85;;;14.55;;
74102;SDS011;62853;46.166;3.640;2023-02-20T03:38:04;17.63;;;13.13;;
74102;SDS011;62853;46.166;3.640;2023-02-20T03:40:54;25.08;;;16.35;;
74102;SDS011;62853;46.166;3.640;2023-02-20T03:43:46;28.05;;;16.58;;
74102;SDS011;62853;46.166;3.640;2023-02-20T03:46:15;22.80;;;16.42;;
74102;SDS011;62853;46.166;3.640;2023-02-20T03:48:57;24.95;;;15.88;;
74102;SDS011;62853;46.166;3.640;2023-02-20T03:52:05;25.17;;;15.35;;
74102;SDS011;62853;46.166;3.640;2023-02-20T03:55:04;19.65;;;13.57;;
74102;SDS011;62853;46.166;3.640;2023-02-20T03:57:54;17.27;;;13.00;;
74102;SDS011;62853;46.166;3.640;2023-02-20T04:00:35;16.05;;;11.75;;
74102;SDS011;62853;46.166;3.640;2023-02-20T04:03:37;18.45;;;12.07;;
74102;SDS011;62853;46.166;3.640;2023-02-20T04:09:34;22.95;;;15.25;;
74102;SDS011;62853;46.166;3.640;2023-02-20T04:12:37;26.00;;;16.02;;
74102;SDS011;62853;46.166;3.640;2023-02-20T04:15:11;18.05;;;16.02;;
74102;SDS011;62853;46.166;3.640;2023-02-20T04:17:43;17.33;;;11.63;;
74102;SDS011;62853;46.166;3.640;2023-02-20T04:20:15;19.98;;;12.32;;
74102;SDS011;62853;46.166;3.640;2023-02-20T04:22:42;22.88;;;15.80;;
74102;SDS011;62853;46.166;3.640;2023-02-20T04:27:46;21.27;;;14.77;;
74102;SDS011;62853;46.166;3.640;2023-02-20T04:30:12;17.60;;;13.05;;
74102;SDS011;62853;46.166;3.640;2023-02-20T04:32:54;20.27;;;13.48;;
74102;SDS011;62853;46.166;3.640;2023-02-20T04:35:33;20.23;;;13.73;;
74102;SDS011;62853;46.166;3.640;2023-02-20T04:41:15;18.33;;;13.52;;
74102;SDS011;62853;46.166;3.640;2023-02-20T04:43:59;20.58;;;12.65;;
74102;SDS011;62853;46.166;3.640;2023-02-20T04:46:49;18.03;;;11.20;;
74102;SDS011;62853;46.166;3.640;2023-02-20T04:49:16;17.48;;;11.40;;
74102;SDS011;62853;46.166;3.640;2023-02-20T04:52:03;22.75;;;13.55;;
74102;SDS011;62853;46.166;3.640;2023-02-20T04:54:34;18.83;;;12.57;;
74102;SDS011;62853;46.166;3.640;2023-02-20T04:57:12;17.98;;;12.88;;
74102;SDS011;62853;46.166;3.640;2023-02-20T04:59:42;16.85;;;11.75;;
74102;SDS011;62853;46.166;3.640;2023-02-20T05:02:14;19.48;;;12.68;;
74102;SDS011;62853;46.166;3.640;2023-02-20T05:04:47;19.75;;;13.60;;
74102;SDS011;62853;46.166;3.640;2023-02-20T05:07:24;16.95;;;12.40;;
74102;SDS011;62853;46.166;3.640;2023-02-20T05:10:18;17.20;;;11.70;;
74102;SDS011;62853;46.166;3.640;2023-02-20T05:13:14;29.60;;;17.20;;
74102;SDS011;62853;46.166;3.640;2023-02-20T05:15:52;26.35;;;15.80;;
74102;SDS011;62853;46.166;3.640;2023-02-20T05:21:43;23.63;;;15.40;;
74102;SDS011;62853;46.166;3.640;2023-02-20T05:27:36;24.10;;;14.85;;
74102;SDS011;62853;46.166;3.640;2023-02-20T05:30:19;21.83;;;15.13;;
74102;SDS011;62853;46.166;3.640;2023-02-20T05:32:47;25.98;;;15.13;;
74102;SDS011;62853;46.166;3.640;2023-02-20T05:35:26;20.90;;;14.00;;
74102;SDS011;62853;46.166;3.640;2023-02-20T05:38:06;23.80;;;14.30;;
74102;SDS011;62853;46.166;3.640;2023-02-20T05:40:32;22.55;;;13.88;;
74102;SDS011;62853;46.166;3.640;2023-02-20T05:46:46;23.17;;;14.50;;
74102;SDS011;62853;46.166;3.640;2023-02-20T05:49:53;25.52;;;13.80;;
74102;SDS011;62853;46.166;3.640;2023-02-20T05:52:26;24.10;;;14.65;;
74102;SDS011;62853;46.166;3.640;2023-02-20T05:55:13;17.67;;;13.13;;
74102;SDS011;62853;46.166;3.640;2023-02-20T05:58:05;21.40;;;12.82;;
74102;SDS011;62853;46.166;3.640;2023-02-20T06:00:31;17.63;;;12.35;;
74102;SDS011;62853;46.166;3.640;2023-02-20T06:03:24;22.25;;;13.60;;
74102;SDS011;62853;46.166;3.640;2023-02-20T06:05:50;19.13;;;12.70;;
74102;SDS011;62853;46.166;3.640;2023-02-20T06:08:38;26.13;;;14.70;;
74102;SDS011;62853;46.166;3.640;2023-02-20T06:11:55;21.70;;;14.10;;
74102;SDS011;62853;46.166;3.640;2023-02-20T06:15:02;20.80;;;14.07;;
74102;SDS011;62853;46.166;3.640;2023-02-20T06:17:39;25.00;;;14.38;;
74102;SDS011;62853;46.166;3.640;2023-02-20T06:20:57;17.15;;;11.70;;
74102;SDS011;62853;46.166;3.640;2023-02-20T06:23:38;18.80;;;11.52;;
74102;SDS011;62853;46.166;3.640;2023-02-20T06:26:13;19.85;;;11.43;;
74102;SDS011;62853;46.166;3.640;2023-02-20T06:29:04;20.75;;;12.95;;
74102;SDS011;62853;46.166;3.640;2023-02-20T06:31:35;20.25;;;11.38;;
74102;SDS011;62853;46.166;3.640;2023-02-20T06:34:11;23.40;;;12.85;;
74102;SDS011;62853;46.166;3.640;2023-02-20T06:36:58;16.70;;;10.75;;
74102;SDS011;62853;46.166;3.640;2023-02-20T06:39:55;14.38;;;9.80;;
74102;SDS011;62853;46.166;3.640;2023-02-20T06:42:25;19.02;;;11.75;;
74102;SDS011;62853;46.166;3.640;2023-02-20T06:45:14;16.40;;;10.52;;
74102;SDS011;62853;46.166;3.640;2023-02-20T06:48:00;15.25;;;11.00;;
74102;SDS011;62853;46.166;3.640;2023-02-20T06:50:42;21.50;;;11.52;;
74102;SDS011;62853;46.166;3.640;2023-02-20T06:53:42;17.55;;;10.85;;
74102;SDS011;62853;46.166;3.640;2023-02-20T06:56:34;13.85;;;10.35;;
74102;SDS011;62853;46.166;3.640;2023-02-20T06:59:03;18.70;;;11.35;;
74102;SDS011;62853;46.166;3.640;2023-02-20T07:01:36;21.05;;;13.25;;
74102;SDS011;62853;46.166;3.640;2023-02-20T07:04:25;21.52;;;12.95;;
74102;SDS011;62853;46.166;3.640;2023-02-20T07:07:06;20.48;;;13.43;;
74102;SDS011;62853;46.166;3.640;2023-02-20T07:09:37;18.30;;;12.98;;
74102;SDS011;62853;46.166;3.640;2023-02-20T07:12:02;17.52;;;12.77;;
74102;SDS011;62853;46.166;3.640;2023-02-20T07:24:02;23.33;;;13.95;;
74102;SDS011;62853;46.166;3.640;2023-02-20T07:26:30;18.48;;;13.43;;
74102;SDS011;62853;46.166;3.640;2023-02-20T07:29:18;17.63;;;11.10;;
74102;SDS011;62853;46.166;3.640;2023-02-20T07:31:56;17.33;;;11.57;;
74102;SDS011;62853;46.166;3.640;2023-02-20T07:34:22;18.20;;;12.13;;
74102;SDS011;62853;46.166;3.640;2023-02-20T07:36:57;21.05;;;12.73;;
74102;SDS011;62853;46.166;3.640;2023-02-20T07:43:24;18.58;;;12.63;;
74102;SDS011;62853;46.166;3.640;2023-02-20T07:49:24;20.00;;;12.57;;
74102;SDS011;62853;46.166;3.640;2023-02-20T07:52:05;13.68;;;10.50;;
74102;SDS011;62853;46.166;3.640;2023-02-20T07:54:37;16.77;;;11.95;;
74102;SDS011;62853;46.166;3.640;2023-02-20T07:57:16;12.48;;;10.00;;
74102;SDS011;62853;46.166;3.640;2023-02-20T07:59:54;16.38;;;11.98;;
74102;SDS011;62853;46.166;3.640;2023-02-20T08:02:55;17.30;;;11.20;;
74102;SDS011;62853;46.166;3.640;2023-02-20T08:05:51;10.90;;;9.10;;
74102;SDS011;62853;46.166;3.640;2023-02-20T08:08:44;15.93;;;10.85;;
74102;SDS011;62853;46.166;3.640;2023-02-20T08:11:34;17.33;;;12.38;;
74102;SDS011;62853;46.166;3.640;2023-02-20T08:14:32;16.02;;;10.45;;
74102;SDS011;62853;46.166;3.640;2023-02-20T08:17:02;16.17;;;11.35;;
74102;SDS011;62853;46.166;3.640;2023-02-20T08:19:43;20.33;;;12.40;;
74102;SDS011;62853;46.166;3.640;2023-02-20T08:22:39;20.58;;;12.35;;
74102;SDS011;62853;46.166;3.640;2023-02-20T08:25:45;21.35;;;13.63;;
74102;SDS011;62853;46.166;3.640;2023-02-20T08:28:16;20.95;;;13.85;;
74102;SDS011;62853;46.166;3.640;2023-02-20T08:31:03;15.88;;;12.48;;
74102;SDS011;62853;46.166;3.640;2023-02-20T08:33:39;17.70;;;13.00;;
74102;SDS011;62853;46.166;3.640;2023-02-20T08:36:36;22.58;;;14.43;;
74102;SDS011;62853;46.166;3.640;2023-02-20T08:39:07;21.02;;;13.88;;
74102;SDS011;62853;46.166;3.640;2023-02-20T08:41:45;20.05;;;13.48;;
74102;SDS011;62853;46.166;3.640;2023-02-20T08:44:13;21.58;;;13.88;;
74102;SDS011;62853;46.166;3.640;2023-02-20T08:46:57;16.55;;;12.82;;
74102;SDS011;62853;46.166;3.640;2023-02-20T08:52:35;16.77;;;11.45;;
74102;SDS011;62853;46.166;3.640;2023-02-20T08:55:22;17.60;;;12.18;;
74102;SDS011;62853;46.166;3.640;2023-02-20T08:58:17;16.42;;;12.15;;
74102;SDS011;62853;46.166;3.640;2023-02-20T09:00:49;15.10;;;11.27;;
74102;SDS011;62853;46.166;3.640;2023-02-20T09:03:33;19.67;;;13.85;;
74102;SDS011;62853;46.166;3.640;2023-02-20T09:06:02;15.15;;;11.20;;
74102;SDS011;62853;46.166;3.640;2023-02-20T09:08:40;15.05;;;12.43;;
74102;SDS011;62853;46.166;3.640;2023-02-20T09:11:09;22.88;;;15.05;;
74102;SDS011;62853;46.166;3.640;2023-02-20T09:13:48;28.50;;;16.88;;
74102;SDS011;62853;46.166;3.640;2023-02-20T09:16:25;22.65;;;15.48;;
74102;SDS011;62853;46.166;3.640;2023-02-20T09:19:00;22.05;;;15.38;;
74102;SDS011;62853;46.166;3.640;2023-02-20T09:21:46;20.25;;;15.10;;
74102;SDS011;62853;46.166;3.640;2023-02-20T09:24:28;22.05;;;15.25;;
74102;SDS011;62853;46.166;3.640;2023-02-20T09:27:16;27.70;;;16.50;;
74102;SDS011;62853;46.166;3.640;2023-02-20T09:29:45;23.55;;;16.90;;
74102;SDS011;62853;46.166;3.640;2023-02-20T09:32:16;24.05;;;16.30;;
74102;SDS011;62853;46.166;3.640;2023-02-20T09:35:06;22.67;;;14.43;;
74102;SDS011;62853;46.166;3.640;2023-02-20T09:37:36;21.25;;;14.70;;
74102;SDS011;62853;46.166;3.640;2023-02-20T09:40:07;22.67;;;16.00;;
74102;SDS011;62853;46.166;3.640;2023-02-20T09:42:36;24.92;;;15.52;;
74102;SDS011;62853;46.166;3.640;2023-02-20T09:45:37;19.85;;;13.88;;
74102;SDS011;62853;46.166;3.640;2023-02-20T09:51:17;21.65;;;15.50;;
74102;SDS011;62853;46.166;3.640;2023-02-20T09:57:03;15.02;;;11.35;;
74102;SDS011;62853;46.166;3.640;2023-02-20T10:05:40;14.30;;;11.05;;
74102;SDS011;62853;46.166;3.640;2023-02-20T10:08:18;18.83;;;12.60;;
74102;SDS011;62853;46.166;3.640;2023-02-20T10:10:49;17.40;;;12.75;;
74102;SDS011;62853;46.166;3.640;2023-02-20T10:14:02;19.73;;;13.52;;
74102;SDS011;62853;46.166;3.640;2023-02-20T10:17:00;17.55;;;13.52;;
74102;SDS011;62853;46.166;3.640;2023-02-20T10:20:07;19.98;;;14.90;;
74102;SDS011;62853;46.166;3.640;2023-02-20T10:22:48;22.90;;;14.50;;
74102;SDS011;62853;46.166;3.640;2023-02-20T10:25:27;19.15;;;13.80;;
74102;SDS011;62853;46.166;3.640;2023-02-20T10:28:21;17.23;;;12.75;;
74102;SDS011;62853;46.166;3.640;2023-02-20T10:36:06;22.48;;;16.25;;
74102;SDS011;62853;46.166;3.640;2023-02-20T10:45:14;16.60;;;12.35;;
74102;SDS011;62853;46.166;3.640;2023-02-20T10:53:57;21.63;;;15.05;;
74102;SDS011;62853;46.166;3.640;2023-02-20T10:59:36;18.77;;;15.07;;
74102;SDS011;62853;46.166;3.640;2023-02-20T11:02:34;19.02;;;14.20;;
74102;SDS011;62853;46.166;3.640;2023-02-20T11:05:22;28.20;;;16.38;;
74102;SDS011;62853;46.166;3.640;2023-02-20T11:07:56;20.63;;;15.13;;
74102;SDS011;62853;46.166;3.640;2023-02-20T11:10:24;16.42;;;13.45;;
74102;SDS011;62853;46.166;3.640;2023-02-20T11:16:01;22.48;;;16.33;;
74102;SDS011;62853;46.166;3.640;2023-02-20T11:18:37;23.23;;;16.30;;
74102;SDS011;62853;46.166;3.640;2023-02-20T11:21:31;18.38;;;13.88;;
74102;SDS011;62853;46.166;3.640;2023-02-20T11:24:32;18.65;;;12.88;;
74102;SDS011;62853;46.166;3.640;2023-02-20T11:27:19;25.42;;;15.88;;
74102;SDS011;62853;46.166;3.640;2023-02-20T11:29:59;19.35;;;15.77;;
74102;SDS011;62853;46.166;3.640;2023-02-20T11:32:37;24.20;;;17.67;;
74102;SDS011;62853;46.166;3.640;2023-02-20T11:37:46;23.42;;;17.00;;
74102;SDS011;62853;46.166;3.640;2023-02-20T11:40:22;23.02;;;17.23;;
74102;SDS011;62853;46.166;3.640;2023-02-20T11:42:52;24.35;;;17.20;;
74102;SDS011;62853;46.166;3.640;2023-02-20T11:45:41;25.75;;;18.38;;
74102;SDS011;62853;46.166;3.640;2023-02-20T11:48:26;29.05;;;18.05;;
74102;SDS011;62853;46.166;3.640;2023-02-20T11:50:54;31.75;;;19.70;;
74102;SDS011;62853;46.166;3.640;2023-02-20T11:53:26;20.85;;;16.35;;
74102;SDS011;62853;46.166;3.640;2023-02-20T11:56:17;30.10;;;18.35;;
74102;SDS011;62853;46.166;3.640;2023-02-20T11:58:49;24.33;;;17.60;;
74102;SDS011;62853;46.166;3.640;2023-02-20T12:01:37;30.08;;;18.48;;
74102;SDS011;62853;46.166;3.640;2023-02-20T12:04:17;24.42;;;16.98;;
74102;SDS011;62853;46.166;3.640;2023-02-20T12:06:58;24.17;;;18.15;;
74102;SDS011;62853;46.166;3.640;2023-02-20T12:09:54;23.73;;;16.80;;
74102;SDS011;62853;46.166;3.640;2023-02-20T12:12:44;22.80;;;16.75;;
74102;SDS011;62853;46.166;3.640;2023-02-20T12:15:30;20.48;;;16.27;;
74102;SDS011;62853;46.166;3.640;2023-02-20T12:33:38;24.88;;;17.77;;
74102;SDS011;62853;46.166;3.640;2023-02-20T12:36:39;26.90;;;18.67;;
74102;SDS011;62853;46.166;3.640;2023-02-20T12:39:27;25.92;;;19.45;;
74102;SDS011;62853;46.166;3.640;2023-02-20T12:47:47;22.38;;;18.13;;
74102;SDS011;62853;46.166;3.640;2023-02-20T12:57:04;24.95;;;19.25;;
74102;SDS011;62853;46.166;3.640;2023-02-20T13:05:33;15.52;;;12.73;;
74102;SDS011;62853;46.166;3.640;2023-02-20T13:08:51;18.30;;;14.25;;
74102;SDS011;62853;46.166;3.640;2023-02-20T13:11:57;20.60;;;14.55;;
74102;SDS011;62853;46.166;3.640;2023-02-20T13:21:02;22.38;;;16.77;;
74102;SDS011;62853;46.166;3.640;2023-02-20T13:23:41;16.95;;;14.57;;
74102;SDS011;62853;46.166;3.640;2023-02-20T13:29:13;18.98;;;14.00;;
74102;SDS011;62853;46.166;3.640;2023-02-20T13:31:54;20.13;;;17.50;;
74102;SDS011;62853;46.166;3.640;2023-02-20T13:34:33;21.98;;;16.92;;
74102;SDS011;62853;46.166;3.640;2023-02-20T13:46:59;18.90;;;14.57;;
74102;SDS011;62853;46.166;3.640;2023-02-20T13:53:02;14.90;;;12.25;;
74102;SDS011;62853;46.166;3.640;2023-02-20T13:56:01;15.18;;;11.63;;
74102;SDS011;62853;46.166;3.640;2023-02-20T13:58:56;14.07;;;11.18;;
74102;SDS011;62853;46.166;3.640;2023-02-20T14:01:40;16.08;;;13.27;;
74102;SDS011;62853;46.166;3.640;2023-02-20T14:07:44;25.60;;;18.35;;
74102;SDS011;62853;46.166;3.640;2023-02-20T14:10:35;20.85;;;17.20;;
74102;SDS011;62853;46.166;3.640;2023-02-20T14:13:17;21.33;;;17.00;;
74102;SDS011;62853;46.166;3.640;2023-02-20T14:15:54;18.65;;;15.85;;
74102;SDS011;62853;46.166;3.640;2023-02-20T14:18:32;18.83;;;15.65;;
74102;SDS011;62853;46.166;3.640;2023-02-20T14:23:57;19.20;;;14.82;;
74102;SDS011;62853;46.166;3.640;2023-02-20T14:26:58;19.95;;;13.73;;
74102;SDS011;62853;46.166;3.640;2023-02-20T14:29:30;20.38;;;17.13;;
74102;SDS011;62853;46.166;3.640;2023-02-20T14:32:04;19.15;;;15.45;;
74102;SDS011;62853;46.166;3.640;2023-02-20T14:35:00;17.13;;;14.40;;
74102;SDS011;62853;46.166;3.640;2023-02-20T14:37:53;18.47;;;14.73;;
74102;SDS011;62853;46.166;3.640;2023-02-20T14:40:46;16.83;;;14.10;;
74102;SDS011;62853;46.166;3.640;2023-02-20T14:49:33;18.38;;;14.10;;
74102;SDS011;62853;46.166;3.640;2023-02-20T14:55:03;16.95;;;13.27;;
74102;SDS011;62853;46.166;3.640;2023-02-20T14:57:47;16.37;;;13.03;;
74102;SDS011;62853;46.166;3.640;2023-02-20T15:00:32;15.27;;;12.40;;
74102;SDS011;62853;46.166;3.640;2023-02-20T15:06:47;13.95;;;12.27;;
74102;SDS011;62853;46.166;3.640;2023-02-20T15:09:17;16.65;;;13.63;;
74102;SDS011;62853;46.166;3.640;2023-02-20T15:14:39;17.67;;;14.57;;
74102;SDS011;62853;46.166;3.640;2023-02-20T15:17:25;16.45;;;13.27;;
74102;SDS011;62853;46.166;3.640;2023-02-20T15:23:20;14.18;;;11.40;;
74102;SDS011;62853;46.166;3.640;2023-02-20T15:26:23;14.63;;;12.65;;
74102;SDS011;62853;46.166;3.640;2023-02-20T15:32:05;13.63;;;10.60;;
74102;SDS011;62853;46.166;3.640;2023-02-20T15:34:57;12.57;;;11.27;;
74102;SDS011;62853;46.166;3.640;2023-02-20T15:40:28;18.33;;;15.63;;
74102;SDS011;62853;46.166;3.640;2023-02-20T15:43:09;17.67;;;13.73;;
74102;SDS011;62853;46.166;3.640;2023-02-20T15:45:39;17.00;;;13.98;;
74102;SDS011;62853;46.166;3.640;2023-02-20T15:48:09;20.70;;;18.48;;
74102;SDS011;62853;46.166;3.640;2023-02-20T15:51:01;18.58;;;16.13;;
74102;SDS011;62853;46.166;3.640;2023-02-20T15:56:44;16.15;;;14.27;;
74102;SDS011;62853;46.166;3.640;2023-02-20T15:59:15;17.63;;;15.63;;
74102;SDS011;62853;46.166;3.640;2023-02-20T16:01:56;18.85;;;16.77;;
74102;SDS011;62853;46.166;3.640;2023-02-20T16:04:32;16.20;;;14.52;;
74102;SDS011;62853;46.166;3.640;2023-02-20T16:07:27;18.08;;;15.50;;
74102;SDS011;62853;46.166;3.640;2023-02-20T16:10:06;15.43;;;13.43;;
74102;SDS011;62853;46.166;3.640;2023-02-20T16:12:51;17.88;;;15.85;;
74102;SDS011;62853;46.166;3.640;2023-02-20T16:15:22;18.23;;;16.13;;
74102;SDS011;62853;46.166;3.640;2023-02-20T16:18:00;23.23;;;17.08;;
74102;SDS011;62853;46.166;3.640;2023-02-20T16:20:45;19.90;;;16.98;;
74102;SDS011;62853;46.166;3.640;2023-02-20T16:23:48;14.95;;;13.32;;
74102;SDS011;62853;46.166;3.640;2023-02-20T16:26:24;23.75;;;16.42;;
74102;SDS011;62853;46.166;3.640;2023-02-20T16:34:20;13.70;;;12.30;;
74102;SDS011;62853;46.166;3.640;2023-02-20T16:37:11;12.20;;;11.00;;
74102;SDS011;62853;46.166;3.640;2023-02-20T16:39:46;11.68;;;10.48;;
74102;SDS011;62853;46.166;3.640;2023-02-20T16:45:01;13.90;;;11.48;;
74102;SDS011;62853;46.166;3.640;2023-02-20T16:47:51;14.98;;;13.40;;
74102;SDS011;62853;46.166;3.640;2023-02-20T16:50:29;12.23;;;11.05;;
74102;SDS011;62853;46.166;3.640;2023-02-20T16:56:47;12.73;;;11.43;;
74102;SDS011;62853;46.166;3.640;2023-02-20T17:02:20;16.52;;;12.18;;
74102;SDS011;62853;46.166;3.640;2023-02-20T17:04:53;13.00;;;11.10;;
74102;SDS011;62853;46.166;3.640;2023-02-20T17:07:38;18.10;;;12.43;;
74102;SDS011;62853;46.166;3.640;2023-02-20T17:10:19;13.48;;;10.70;;
74102;SDS011;62853;46.166;3.640;2023-02-20T17:12:48;18.38;;;12.88;;
74102;SDS011;62853;46.166;3.640;2023-02-20T17:15:24;12.25;;;10.98;;
74102;SDS011;62853;46.166;3.640;2023-02-20T17:21:37;12.50;;;10.07;;
74102;SDS011;62853;46.166;3.640;2023-02-20T17:24:21;14.00;;;11.38;;
74102;SDS011;62853;46.166;3.640;2023-02-20T17:26:57;13.27;;;10.13;;
74102;SDS011;62853;46.166;3.640;2023-02-20T17:29:34;16.38;;;14.00;;
74102;SDS011;62853;46.166;3.640;2023-02-20T17:32:03;15.38;;;13.25;;
74102;SDS011;62853;46.166;3.640;2023-02-20T17:34:37;17.70;;;14.68;;
74102;SDS011;62853;46.166;3.640;2023-02-20T17:37:16;13.63;;;12.25;;
74102;SDS011;62853;46.166;3.640;2023-02-20T17:40:03;15.65;;;12.73;;
74102;SDS011;62853;46.166;3.640;2023-02-20T17:42:39;14.13;;;12.63;;
74102;SDS011;62853;46.166;3.640;2023-02-20T17:45:19;16.13;;;12.00;;
74102;SDS011;62853;46.166;3.640;2023-02-20T17:48:12;14.20;;;11.40;;
74102;SDS011;62853;46.166;3.640;2023-02-20T17:50:58;17.70;;;13.43;;
74102;SDS011;62853;46.166;3.640;2023-02-20T17:53:33;15.95;;;13.32;;
74102;SDS011;62853;46.166;3.640;2023-02-20T17:56:22;14.52;;;11.73;;
74102;SDS011;62853;46.166;3.640;2023-02-20T17:59:08;15.35;;;13.75;;
74102;SDS011;62853;46.166;3.640;2023-02-20T18:01:39;15.63;;;13.68;;
74102;SDS011;62853;46.166;3.640;2023-02-20T18:04:05;16.70;;;14.18;;
74102;SDS011;62853;46.166;3.640;2023-02-20T18:06:40;15.43;;;13.55;;
74102;SDS011;62853;46.166;3.640;2023-02-20T18:09:12;13.70;;;12.18;;
74102;SDS011;62853;46.166;3.640;2023-02-20T18:12:06;15.65;;;13.00;;
74102;SDS011;62853;46.166;3.640;2023-02-20T18:14:52;16.10;;;14.38;;
74102;SDS011;62853;46.166;3.640;2023-02-20T18:17:36;14.77;;;13.15;;
74102;SDS011;62853;46.166;3.640;2023-02-20T18:20:16;15.23;;;13.50;;
74102;SDS011;62853;46.166;3.640;2023-02-20T18:23:10;13.48;;;12.05;;
74102;SDS011;62853;46.166;3.640;2023-02-20T18:25:57;14.73;;;11.98;;
74102;SDS011;62853;46.166;3.640;2023-02-20T18:28:30;14.88;;;13.25;;
74102;SDS011;62853;46.166;3.640;2023-02-20T18:31:01;17.10;;;14.82;;
74102;SDS011;62853;46.166;3.640;2023-02-20T18:33:26;15.38;;;13.77;;
74102;SDS011;62853;46.166;3.640;2023-02-20T18:36:06;14.35;;;12.63;;
74102;SDS011;62853;46.166;3.640;2023-02-20T18:39:05;15.35;;;13.75;;
74102;SDS011;62853;46.166;3.640;2023-02-20T18:41:37;15.85;;;14.15;;
74102;SDS011;62853;46.166;3.640;2023-02-20T18:47:40;15.02;;;13.25;;
74102;SDS011;62853;46.166;3.640;2023-02-20T18:50:15;13.25;;;11.45;;
74102;SDS011;62853;46.166;3.640;2023-02-20T18:53:09;12.52;;;11.18;;
74102;SDS011;62853;46.166;3.640;2023-02-20T18:56:04;11.50;;;10.18;;
74102;SDS011;62853;46.166;3.640;2023-02-20T18:58:46;13.07;;;11.70;;
74102;SDS011;62853;46.166;3.640;2023-02-20T19:01:38;14.00;;;12.45;;
74102;SDS011;62853;46.166;3.640;2023-02-20T19:07:09;14.25;;;12.75;;
74102;SDS011;62853;46.166;3.640;2023-02-20T19:09:43;16.33;;;14.02;;
74102;SDS011;62853;46.166;3.640;2023-02-20T19:12:35;17.10;;;14.68;;
74102;SDS011;62853;46.166;3.640;2023-02-20T19:15:04;15.00;;;13.40;;
74102;SDS011;62853;46.166;3.640;2023-02-20T19:17:56;14.75;;;12.60;;
74102;SDS011;62853;46.166;3.640;2023-02-20T19:20:31;14.10;;;12.57;;
74102;SDS011;62853;46.166;3.640;2023-02-20T19:23:02;15.32;;;13.27;;
74102;SDS011;62853;46.166;3.640;2023-02-20T19:25:28;16.17;;;13.20;;
74102;SDS011;62853;46.166;3.640;2023-02-20T19:28:32;12.82;;;11.50;;
74102;SDS011;62853;46.166;3.640;2023-02-20T19:31:02;10.57;;;9.32;;
74102;SDS011;62853;46.166;3.640;2023-02-20T19:33:49;11.57;;;10.23;;
74102;SDS011;62853;46.166;3.640;2023-02-20T19:36:39;14.88;;;11.38;;
74102;SDS011;62853;46.166;3.640;2023-02-20T19:39:06;12.30;;;11.10;;
74102;SDS011;62853;46.166;3.640;2023-02-20T19:42:01;12.07;;;10.82;;
74102;SDS011;62853;46.166;3.640;2023-02-20T19:44:57;12.82;;;11.25;;
74102;SDS011;62853;46.166;3.640;2023-02-20T19:47:50;12.93;;;11.63;;
74102;SDS011;62853;46.166;3.640;2023-02-20T19:50:34;15.15;;;13.55;;
74102;SDS011;62853;46.166;3.640;2023-02-20T19:53:26;15.82;;;13.98;;
74102;SDS011;62853;46.166;3.640;2023-02-20T19:56:05;18.48;;;16.02;;
74102;SDS011;62853;46.166;3.640;2023-02-20T19:58:37;18.83;;;16.80;;
74102;SDS011;62853;46.166;3.640;2023-02-20T20:01:23;17.27;;;15.38;;
74102;SDS011;62853;46.166;3.640;2023-02-20T20:04:01;15.57;;;13.93;;
74102;SDS011;62853;46.166;3.640;2023-02-20T20:06:29;22.60;;;20.20;;
74102;SDS011;62853;46.166;3.640;2023-02-20T20:09:09;20.00;;;17.85;;
74102;SDS011;62853;46.166;3.640;2023-02-20T20:12:12;17.42;;;15.63;;
74102;SDS011;62853;46.166;3.640;2023-02-20T20:15:17;23.92;;;19.73;;
74102;SDS011;62853;46.166;3.640;2023-02-20T20:18:04;21.58;;;18.33;;
74102;SDS011;62853;46.166;3.640;2023-02-20T20:20:33;22.67;;;18.83;;
74102;SDS011;62853;46.166;3.640;2023-02-20T20:23:14;19.67;;;17.58;;
74102;SDS011;62853;46.166;3.640;2023-02-20T20:26:24;19.35;;;17.13;;
74102;SDS011;62853;46.166;3.640;2023-02-20T20:28:55;20.85;;;18.15;;
74102;SDS011;62853;46.166;3.640;2023-02-20T20:31:25;21.27;;;18.58;;
74102;SDS011;62853;46.166;3.640;2023-02-20T20:34:00;20.10;;;16.80;;
74102;SDS011;62853;46.166;3.640;2023-02-20T20:36:51;18.90;;;16.65;;
74102;SDS011;62853;46.166;3.640;2023-02-20T20:39:22;19.05;;;16.83;;
74102;SDS011;62853;46.166;3.640;2023-02-20T20:42:17;20.08;;;17.98;;